EGNR/CEG METAR and TAF weather

Enter ICAO airport designator
Station Type Date Time Source
EGNR METAR 2018/12/13 19:50 UTC NOAA

EGNR 131950Z 14008KT CAVOK 03/M01 Q1020


Station Type Date Time Source
EGNR Decoded METAR 2018/12/13 19:50 UTC NOAA

Hawarden, United Kingdom (EGNR) 53-10N 002-59W 0M
Dec 13, 2018 - 02:50 PM EST / 2018.12.13 1950 UTC
Wind: from the SE (140 degrees) at 9 MPH (8 KT):0
Visibility: greater than 7 mile(s):0
Temperature: 37 F (3 C)
Dew Point: 30 F (-1 C)
Relative Humidity: 74%
Pressure (altimeter): 30.12 in. Hg (1020 hPa)
ob: EGNR 131950Z 14008KT CAVOK 03/M01 Q1020
cycle: 20

Station Type Date Time Source
EGNR TAF 2016/01/23 12:00 UTC NOAA

TAF EGNR 231059Z 2312/2319 15009KT 9999 FEW020
BECMG 2316/2319 BKN014
TEMPO 2317/2319 6000 RA BKN008


Example: see airport list